createdAt,value
2023-03-17T00:01:22.398Z,64.10
2023-03-17T00:03:51.573Z,161.97
2023-03-17T00:06:25.120Z,96.30
2023-03-17T00:08:53.073Z,183.83
2023-03-17T00:11:21.500Z,98.10
2023-03-17T00:13:51.176Z,75.90
2023-03-17T00:16:22.066Z,108.40
2023-03-17T00:18:51.423Z,96.17
2023-03-17T00:21:23.813Z,118.33
2023-03-17T00:23:54.058Z,42.53
2023-03-17T00:26:22.017Z,69.80
2023-03-17T00:28:51.843Z,85.83
2023-03-17T00:31:23.546Z,29.47
2023-03-17T00:33:54.018Z,68.00
2023-03-17T00:36:23.939Z,186.17
2023-03-17T00:38:52.672Z,179.33
2023-03-17T00:41:20.879Z,287.70
2023-03-17T00:43:48.826Z,73.37
2023-03-17T00:46:22.022Z,94.00
2023-03-17T00:48:50.148Z,60.57
2023-03-17T00:51:18.074Z,88.03
2023-03-17T00:53:46.150Z,168.63
2023-03-17T00:56:15.955Z,100.80
2023-03-17T00:58:44.930Z,141.83
2023-03-17T01:01:13.418Z,145.80
2023-03-17T01:03:42.748Z,127.83
2023-03-17T01:06:13.802Z,118.57
2023-03-17T01:08:42.702Z,156.27
2023-03-17T01:11:18.659Z,82.40
2023-03-17T01:13:47.626Z,73.77
2023-03-17T01:16:16.005Z,50.70
2023-03-17T01:18:45.601Z,49.10
2023-03-17T01:21:14.010Z,118.73
2023-03-17T01:23:42.213Z,94.30
2023-03-17T01:26:10.323Z,196.77
2023-03-17T01:28:38.321Z,74.23
2023-03-17T01:31:06.450Z,108.53
2023-03-17T01:33:35.149Z,69.17
2023-03-17T01:36:04.592Z,65.50
2023-03-17T01:38:32.594Z,62.67
2023-03-17T01:41:02.314Z,643.47
2023-03-17T01:43:31.368Z,142.40
2023-03-17T01:46:27.581Z,105.47
2023-03-17T01:49:11.259Z,128.13
2023-03-17T01:51:47.610Z,82.03
2023-03-17T01:54:19.643Z,128.37
2023-03-17T01:56:52.517Z,104.10
2023-03-17T01:59:25.916Z,106.43
2023-03-17T02:01:59.026Z,50.73
2023-03-17T02:04:27.750Z,98.47
2023-03-17T02:06:58.892Z,103.43
2023-03-17T02:09:28.665Z,127.87
2023-03-17T02:11:58.066Z,77.93
2023-03-17T02:14:26.054Z,60.00
2023-03-17T02:16:54.625Z,93.13
2023-03-17T02:19:22.704Z,72.07
2023-03-17T02:21:53.809Z,264.17
2023-03-17T02:24:27.515Z,83.10
2023-03-17T02:26:58.359Z,51.43
2023-03-17T02:29:27.637Z,132.13
2023-03-17T02:31:55.670Z,42.20
2023-03-17T02:34:23.631Z,86.20
2023-03-17T02:36:53.112Z,101.33
2023-03-17T02:39:21.511Z,92.33
2023-03-17T02:41:49.560Z,66.27
2023-03-17T02:44:17.862Z,100.80
2023-03-17T02:46:46.320Z,95.73
2023-03-17T02:49:15.351Z,239.57
2023-03-17T02:51:43.324Z,124.43
2023-03-17T02:54:12.796Z,93.47
2023-03-17T02:56:40.915Z,117.33
2023-03-17T02:59:09.658Z,110.87
2023-03-17T03:01:38.900Z,72.40
2023-03-17T03:04:07.490Z,75.73
2023-03-17T03:06:36.107Z,96.13
2023-03-17T03:09:05.663Z,67.63
2023-03-17T03:11:34.994Z,207.10
2023-03-17T03:14:03.484Z,82.70
2023-03-17T03:16:31.438Z,68.20
2023-03-17T03:18:59.377Z,56.07
2023-03-17T03:21:27.660Z,379.63
2023-03-17T03:23:55.600Z,112.73
2023-03-17T03:26:23.800Z,63.30
2023-03-17T03:28:53.880Z,138.97
2023-03-17T03:31:22.997Z,62.33
2023-03-17T03:33:51.562Z,175.63
2023-03-17T03:36:20.410Z,216.93
2023-03-17T03:38:48.348Z,137.70
2023-03-17T03:41:16.453Z,125.93
2023-03-17T03:43:44.403Z,83.53
2023-03-17T03:46:13.732Z,123.47
2023-03-17T03:48:41.683Z,132.30
2023-03-17T03:51:09.621Z,114.23
2023-03-17T03:53:37.635Z,119.57
2023-03-17T03:56:06.387Z,86.93
2023-03-17T03:58:34.335Z,124.57
2023-03-17T04:01:06.157Z,139.90
2023-03-17T04:03:35.665Z,208.50
2023-03-17T04:06:04.462Z,47.00
2023-03-17T04:08:32.780Z,409.63
2023-03-17T04:11:00.771Z,116.83
2023-03-17T04:13:28.750Z,223.80
2023-03-17T04:15:56.790Z,116.17
2023-03-17T04:18:25.569Z,142.83
2023-03-17T04:20:54.903Z,140.47
2023-03-17T04:23:22.848Z,151.07
2023-03-17T04:25:51.948Z,100.47
2023-03-17T04:28:20.519Z,236.83
2023-03-17T04:30:48.467Z,893.37
2023-03-17T04:33:16.779Z,158.47
2023-03-17T04:35:44.949Z,94.97
2023-03-17T04:38:14.507Z,92.80
2023-03-17T04:40:42.663Z,276.60
2023-03-17T04:43:10.870Z,98.87
2023-03-17T04:45:38.945Z,124.83
2023-03-17T04:48:07.246Z,46.93
2023-03-17T04:50:35.621Z,109.73
2023-03-17T04:53:03.923Z,177.63
2023-03-17T04:55:33.207Z,127.27
2023-03-17T04:58:01.172Z,107.67
2023-03-17T05:00:29.464Z,100.43
2023-03-17T05:02:57.601Z,89.70
2023-03-17T05:05:25.536Z,104.20
2023-03-17T05:07:53.509Z,88.10
2023-03-17T05:10:21.431Z,127.63
2023-03-17T05:12:51.002Z,52.07
2023-03-17T05:15:19.216Z,212.43
2023-03-17T05:17:47.159Z,138.33
2023-03-17T05:20:15.631Z,159.97
2023-03-17T05:22:43.637Z,1999.90
2023-03-17T05:25:11.614Z,142.57
2023-03-17T05:27:39.617Z,1270.23
2023-03-17T05:30:11.684Z,141.27
2023-03-17T05:32:40.345Z,111.73
2023-03-17T05:35:09.085Z,133.93
2023-03-17T05:37:37.052Z,84.23
2023-03-17T05:40:05.709Z,181.23
2023-03-17T05:42:33.685Z,111.40
2023-03-17T05:45:01.636Z,96.30
2023-03-17T05:47:32.112Z,82.37
2023-03-17T05:50:00.060Z,81.07
2023-03-17T05:52:28.207Z,83.27
2023-03-17T05:54:56.768Z,444.23
2023-03-17T05:57:24.988Z,103.00
2023-03-17T05:59:52.924Z,72.20
2023-03-17T06:02:21.036Z,125.20
2023-03-17T06:04:50.583Z,112.00
2023-03-17T06:07:18.593Z,107.80
2023-03-17T06:09:46.529Z,166.47
2023-03-17T06:12:14.593Z,45.17
2023-03-17T06:14:42.599Z,51.77
2023-03-17T06:17:12.504Z,323.40
2023-03-17T06:19:40.713Z,65.07
2023-03-17T06:22:10.282Z,143.80
2023-03-17T06:24:38.441Z,67.43
2023-03-17T06:27:06.581Z,50.87
2023-03-17T06:29:34.582Z,97.93
2023-03-17T06:32:18.854Z,63.97
2023-03-17T06:34:48.265Z,57.73
2023-03-17T06:37:17.621Z,128.57
2023-03-17T06:39:45.774Z,163.13
2023-03-17T06:42:14.043Z,146.70
2023-03-17T06:44:41.994Z,79.93
2023-03-17T06:47:10.117Z,109.60
2023-03-17T06:49:38.297Z,118.17
2023-03-17T06:52:08.414Z,124.07
2023-03-17T06:54:37.708Z,36.47
2023-03-17T06:57:05.725Z,148.47
2023-03-17T06:59:33.722Z,152.40
2023-03-17T07:02:01.728Z,69.10
2023-03-17T07:04:29.819Z,143.97
2023-03-17T07:06:57.814Z,177.40
2023-03-17T07:09:25.803Z,1289.07
2023-03-17T07:11:55.077Z,1632.57
2023-03-17T07:14:23.036Z,1899.23
2023-03-17T07:16:51.088Z,1999.90
2023-03-17T07:19:19.046Z,1999.90
2023-03-17T07:21:47.206Z,1999.90
2023-03-17T07:24:15.416Z,1999.90
2023-03-17T07:26:43.434Z,1999.90
2023-03-17T07:29:12.764Z,1999.90
2023-03-17T07:31:41.457Z,1999.90
2023-03-17T07:34:10.465Z,1999.90
2023-03-17T07:36:38.562Z,1999.90
2023-03-17T07:39:06.557Z,1999.90
2023-03-17T07:41:34.647Z,1999.90
2023-03-17T07:44:03.946Z,1999.90
2023-03-17T07:46:33.400Z,1999.90
2023-03-17T07:49:01.695Z,1999.90
2023-03-17T07:51:29.694Z,1999.90
2023-03-17T07:54:03.529Z,1999.90
2023-03-17T07:56:32.012Z,1999.90
2023-03-17T07:59:00.446Z,1999.90
2023-03-17T08:01:29.004Z,1999.90
2023-03-17T08:03:58.681Z,1999.90
2023-03-17T08:06:26.704Z,1999.90
2023-03-17T08:08:55.798Z,1999.90
2023-03-17T08:11:24.374Z,1999.90
2023-03-17T08:13:52.323Z,1428.40
2023-03-17T08:16:20.264Z,1827.67
2023-03-17T08:18:48.214Z,1999.90
2023-03-17T08:21:17.723Z,1999.90
2023-03-17T08:23:45.733Z,1563.10
2023-03-17T08:26:14.283Z,1515.77
2023-03-17T08:28:43.033Z,1996.53
2023-03-17T08:31:12.872Z,1999.90
2023-03-17T08:33:42.333Z,1999.90
2023-03-17T08:36:11.725Z,1066.87
2023-03-17T08:38:42.589Z,1999.90
2023-03-17T08:41:13.242Z,1999.90
2023-03-17T08:43:43.905Z,1999.90
2023-03-17T08:46:16.940Z,1999.90
2023-03-17T08:48:46.788Z,1999.90
2023-03-17T08:51:18.210Z,1999.90
2023-03-17T08:53:48.682Z,1999.90
2023-03-17T08:56:16.907Z,1999.90
2023-03-17T08:58:45.249Z,1999.90
2023-03-17T09:01:13.857Z,1999.90
2023-03-17T09:03:42.042Z,1999.90
2023-03-17T09:06:12.388Z,1999.90
2023-03-17T09:08:44.986Z,1999.90
2023-03-17T09:11:16.538Z,1999.90
2023-03-17T09:13:46.453Z,1999.90
2023-03-17T09:16:14.874Z,1999.90
2023-03-17T09:18:43.095Z,1999.90
2023-03-17T09:21:12.297Z,1999.90
2023-03-17T09:23:41.117Z,1999.90
2023-03-17T09:26:10.265Z,1999.90
2023-03-17T09:28:39.773Z,1999.90
2023-03-17T09:31:11.410Z,1999.90
2023-03-17T09:33:39.787Z,1999.90
2023-03-17T09:36:08.531Z,1999.90
2023-03-17T09:38:37.503Z,1999.90
2023-03-17T09:41:21.148Z,1999.90
2023-03-17T09:43:55.646Z,1999.90
2023-03-17T09:46:35.971Z,1999.90
2023-03-17T09:49:08.655Z,1999.90
2023-03-17T09:51:36.939Z,1999.90
2023-03-17T09:54:08.452Z,1999.90
2023-03-17T09:56:41.210Z,1999.90
2023-03-17T09:59:31.319Z,1999.90
2023-03-17T10:01:59.723Z,1999.90
2023-03-17T10:04:29.204Z,1999.90
2023-03-17T10:07:03.718Z,1999.90
2023-03-17T10:09:40.131Z,1999.90
2023-03-17T10:12:13.507Z,1999.90
2023-03-17T10:14:57.324Z,1999.90
2023-03-17T10:17:29.546Z,1999.90
2023-03-17T10:20:01.772Z,1999.90
2023-03-17T10:22:35.954Z,1999.90
2023-03-17T10:25:09.231Z,1999.90
2023-03-17T10:27:39.212Z,1999.90
2023-03-17T10:30:17.311Z,1999.90
2023-03-17T10:32:46.614Z,1999.90
2023-03-17T10:35:16.622Z,1999.90
2023-03-17T10:37:45.607Z,1999.90
2023-03-17T10:40:22.806Z,1999.90
2023-03-17T10:42:54.451Z,1999.90
2023-03-17T10:45:28.783Z,1999.90
2023-03-17T10:47:58.285Z,1999.90
2023-03-17T10:50:31.400Z,1999.90
2023-03-17T10:53:01.904Z,1999.90
2023-03-17T10:55:33.169Z,1999.90
2023-03-17T10:58:05.936Z,1999.90
2023-03-17T11:00:38.600Z,1999.90
2023-03-17T11:03:16.120Z,1999.90
2023-03-17T11:05:56.748Z,1999.90
2023-03-17T11:08:25.100Z,1999.90
2023-03-17T11:10:57.542Z,1999.90
2023-03-17T11:13:31.166Z,1999.90
2023-03-17T11:16:11.647Z,1999.90
2023-03-17T11:18:40.780Z,1999.90
2023-03-17T11:21:11.379Z,1999.90
2023-03-17T11:23:52.232Z,1999.90
2023-03-17T11:26:40.483Z,1999.90
2023-03-17T11:29:34.936Z,1999.90
2023-03-17T11:32:15.317Z,1999.90
2023-03-17T11:34:56.769Z,1999.90
2023-03-17T11:37:36.140Z,1999.90
2023-03-17T11:40:12.111Z,1999.90
2023-03-17T11:42:50.583Z,1999.90
2023-03-17T11:45:27.299Z,1999.90
2023-03-17T11:48:20.489Z,1999.90
2023-03-17T11:50:56.925Z,1999.90
2023-03-17T11:53:52.932Z,1999.90
2023-03-17T11:56:25.101Z,1999.90
2023-03-17T11:58:57.352Z,1999.90
2023-03-17T12:01:30.098Z,1999.90
2023-03-17T12:04:11.535Z,1999.90
2023-03-17T12:06:44.591Z,1999.90
2023-03-17T12:09:26.224Z,1999.90
2023-03-17T12:11:56.807Z,1999.90
2023-03-17T12:14:30.099Z,1999.90
2023-03-17T12:17:06.148Z,1999.90
2023-03-17T12:19:42.475Z,1999.90
2023-03-17T12:22:18.914Z,1999.90
2023-03-17T12:24:54.619Z,1999.90
2023-03-17T12:27:26.067Z,1999.90
2023-03-17T12:29:59.348Z,1999.90
2023-03-17T12:32:35.862Z,1999.90
2023-03-17T12:35:20.183Z,1999.90
2023-03-17T12:37:49.923Z,1999.90
2023-03-17T12:40:24.040Z,1999.90
2023-03-17T12:42:59.703Z,1999.90
2023-03-17T12:45:51.523Z,1999.90
2023-03-17T12:48:46.378Z,1999.90
2023-03-17T12:51:45.752Z,1999.90
2023-03-17T12:54:20.115Z,1999.90
2023-03-17T12:56:49.955Z,1999.90
2023-03-17T12:59:21.954Z,1999.90
2023-03-17T13:01:58.513Z,1999.90
2023-03-17T13:04:32.358Z,1999.90
2023-03-17T13:07:10.070Z,1999.90
2023-03-17T13:09:47.194Z,1999.90
2023-03-17T13:12:50.700Z,1999.90
2023-03-17T13:15:24.625Z,1999.90
2023-03-17T13:17:53.767Z,1999.90
2023-03-17T13:20:22.084Z,1999.90
2023-03-17T13:23:13.052Z,1999.90
2023-03-17T13:25:53.374Z,1999.90
2023-03-17T13:28:27.083Z,1999.90
2023-03-17T13:31:10.109Z,1999.90
2023-03-17T13:33:44.742Z,1999.90
2023-03-17T13:36:28.251Z,1999.90
2023-03-17T13:39:35.881Z,1999.90
2023-03-17T13:42:18.746Z,1999.90
2023-03-17T13:45:04.199Z,1999.90
2023-03-17T13:47:35.779Z,1999.90
2023-03-17T13:50:09.469Z,1999.90
2023-03-17T13:52:43.849Z,1999.90
2023-03-17T13:55:35.971Z,1999.90
2023-03-17T13:58:26.170Z,1999.90
2023-03-17T14:01:02.550Z,1999.90
2023-03-17T14:03:37.391Z,1999.90
2023-03-17T14:06:08.271Z,1999.90
2023-03-17T14:08:37.961Z,1999.90
2023-03-17T14:11:16.934Z,1999.90
2023-03-17T14:13:50.550Z,1999.90
2023-03-17T14:16:25.339Z,1999.90
2023-03-17T14:18:57.135Z,1999.90
2023-03-17T14:21:27.064Z,1999.90
2023-03-17T14:23:56.199Z,1999.90
2023-03-17T14:26:27.749Z,1999.90
2023-03-17T14:28:56.311Z,1999.90
2023-03-17T14:31:26.852Z,1999.90
2023-03-17T14:33:56.940Z,1999.90
2023-03-17T14:36:26.246Z,1999.90
2023-03-17T14:38:55.913Z,1999.90
2023-03-17T14:41:27.458Z,1999.90
2023-03-17T14:43:59.621Z,1999.90
2023-03-17T14:46:32.018Z,1999.90
2023-03-17T14:49:01.964Z,1999.90
2023-03-17T14:51:33.375Z,1999.90
2023-03-17T14:54:03.612Z,1999.90
2023-03-17T14:56:37.289Z,1999.90
2023-03-17T14:59:08.090Z,1999.90
2023-03-17T15:01:39.718Z,1999.90
2023-03-17T15:04:12.904Z,1999.90
2023-03-17T15:06:49.862Z,1999.90
2023-03-17T15:09:19.956Z,1999.90
2023-03-17T15:11:50.298Z,1999.90
2023-03-17T15:14:22.837Z,1999.90
2023-03-17T15:16:53.003Z,1999.90
2023-03-17T15:19:26.363Z,1999.90
2023-03-17T15:21:57.139Z,1999.90
2023-03-17T15:24:29.704Z,1999.90
2023-03-17T15:27:03.802Z,1999.90
2023-03-17T15:29:31.853Z,1999.90
2023-03-17T15:32:07.715Z,1999.90
2023-03-17T15:34:35.657Z,1999.90
2023-03-17T15:37:03.708Z,1999.90
2023-03-17T15:39:31.668Z,1999.90
2023-03-17T15:41:59.724Z,1999.90
2023-03-17T15:44:29.003Z,1999.90
2023-03-17T15:46:56.955Z,1999.90
2023-03-17T15:49:26.972Z,1999.90
2023-03-17T15:51:55.120Z,1999.90
2023-03-17T15:54:23.206Z,1999.90
2023-03-17T15:56:51.495Z,1999.90
2023-03-17T15:59:19.423Z,1999.90
2023-03-17T16:01:48.903Z,1999.90
2023-03-17T16:04:17.975Z,1999.90
2023-03-17T16:06:48.118Z,1999.90
2023-03-17T16:09:17.843Z,1999.90
2023-03-17T16:11:45.854Z,1999.90
2023-03-17T16:14:13.788Z,1999.90
2023-03-17T16:16:45.782Z,1999.90
2023-03-17T16:19:20.435Z,1999.90
2023-03-17T16:21:49.097Z,1999.90
2023-03-17T16:24:20.400Z,1999.90
2023-03-17T16:26:49.247Z,1999.90
2023-03-17T16:29:17.763Z,1999.90
2023-03-17T16:31:48.912Z,1999.90
2023-03-17T16:34:19.940Z,1947.63
2023-03-17T16:36:48.441Z,1999.90
2023-03-17T16:39:18.612Z,1999.90
2023-03-17T16:41:48.067Z,1999.90
2023-03-17T16:44:18.052Z,1999.90
2023-03-17T16:46:46.187Z,1957.00
2023-03-17T16:49:16.433Z,1999.90
2023-03-17T16:51:46.026Z,1999.90
2023-03-17T16:54:14.007Z,1999.90
2023-03-17T16:56:43.183Z,1999.90
2023-03-17T16:59:15.375Z,1849.23
2023-03-17T17:01:43.780Z,1999.90
2023-03-17T17:04:12.043Z,1999.90
2023-03-17T17:06:40.026Z,1999.90
2023-03-17T17:09:09.351Z,1999.90
2023-03-17T17:11:37.311Z,1999.90
2023-03-17T17:14:05.246Z,1986.27
2023-03-17T17:16:36.432Z,1364.93
2023-03-17T17:19:05.299Z,1255.80
2023-03-17T17:21:33.952Z,1475.30
2023-03-17T17:24:01.951Z,1999.90
2023-03-17T17:26:31.296Z,1999.90
2023-03-17T17:28:59.248Z,1999.90
2023-03-17T17:31:27.216Z,1999.90
2023-03-17T17:33:55.240Z,925.93
2023-03-17T17:36:24.139Z,1762.57
2023-03-17T17:38:52.362Z,1999.90
2023-03-17T17:41:21.580Z,1597.10
2023-03-17T17:43:51.715Z,1226.83
2023-03-17T17:46:21.305Z,1583.10
2023-03-17T17:48:49.368Z,491.90
2023-03-17T17:51:17.466Z,1766.17
2023-03-17T17:53:45.766Z,1999.90
2023-03-17T17:56:15.941Z,955.20
2023-03-17T17:58:44.848Z,1710.63
2023-03-17T18:01:19.612Z,885.17
2023-03-17T18:03:47.738Z,1542.43
2023-03-17T18:06:17.150Z,1760.80
2023-03-17T18:08:45.224Z,1056.97
2023-03-17T18:11:13.523Z,1692.80
2023-03-17T18:13:41.507Z,1410.57
2023-03-17T18:16:10.782Z,1808.77
2023-03-17T18:18:42.463Z,1635.57
2023-03-17T18:21:10.840Z,1999.90
2023-03-17T18:23:39.253Z,1796.83
2023-03-17T18:26:07.646Z,1792.07
2023-03-17T18:28:36.042Z,1999.90
2023-03-17T18:31:09.583Z,1662.87
2023-03-17T18:33:39.801Z,576.90
2023-03-17T18:36:08.828Z,1341.10
2023-03-17T18:38:37.260Z,956.33
2023-03-17T18:41:07.766Z,994.23
2023-03-17T18:43:35.748Z,1741.13
2023-03-17T18:46:03.715Z,1999.90
2023-03-17T18:48:32.017Z,1934.67
2023-03-17T18:51:01.630Z,921.93
2023-03-17T18:53:30.772Z,1193.07
2023-03-17T18:55:59.855Z,566.83
2023-03-17T18:58:28.834Z,1763.97
2023-03-17T19:00:59.954Z,406.93
2023-03-17T19:03:28.514Z,703.27
2023-03-17T19:05:57.044Z,1826.40
2023-03-17T19:08:26.673Z,419.10
2023-03-17T19:10:54.615Z,1001.30
2023-03-17T19:13:22.592Z,1619.73
2023-03-17T19:15:50.821Z,323.20
2023-03-17T19:18:18.779Z,1734.50
2023-03-17T19:20:46.814Z,1234.57
2023-03-17T19:23:15.481Z,823.60
2023-03-17T19:25:44.888Z,1689.10
2023-03-17T19:28:13.492Z,1197.33
2023-03-17T19:30:41.988Z,1865.60
2023-03-17T19:33:10.302Z,563.37
2023-03-17T19:35:38.343Z,740.10
2023-03-17T19:38:08.275Z,847.53
2023-03-17T19:40:36.991Z,1223.10
2023-03-17T19:43:06.757Z,507.30
2023-03-17T19:45:34.905Z,393.90
2023-03-17T19:48:02.901Z,1071.33
2023-03-17T19:50:32.865Z,1223.47
2023-03-17T19:53:01.163Z,158.00
2023-03-17T19:55:29.861Z,296.90
2023-03-17T19:57:57.929Z,567.30
2023-03-17T20:00:27.359Z,338.90
2023-03-17T20:02:55.410Z,1223.60
2023-03-17T20:05:23.541Z,994.07
2023-03-17T20:07:51.551Z,498.10
2023-03-17T20:10:20.001Z,422.73
2023-03-17T20:12:48.024Z,519.40
2023-03-17T20:15:16.591Z,748.60
2023-03-17T20:17:46.399Z,805.07
2023-03-17T20:20:15.392Z,747.03
2023-03-17T20:22:43.951Z,990.80
2023-03-17T20:25:12.421Z,1417.30
2023-03-17T20:27:41.633Z,1068.97
2023-03-17T20:30:12.290Z,1032.70
2023-03-17T20:32:40.892Z,524.70
2023-03-17T20:35:11.259Z,1336.70
2023-03-17T20:37:40.437Z,189.90
2023-03-17T20:40:10.792Z,503.00
2023-03-17T20:42:38.789Z,102.93
2023-03-17T20:45:08.837Z,382.70
2023-03-17T20:47:37.830Z,282.47
2023-03-17T20:50:08.745Z,224.17
2023-03-17T20:52:40.079Z,126.13
2023-03-17T20:55:09.323Z,702.23
2023-03-17T20:57:37.987Z,1396.97
2023-03-17T21:00:08.252Z,196.00
2023-03-17T21:02:36.557Z,411.43
2023-03-17T21:05:04.834Z,589.27
2023-03-17T21:07:32.806Z,508.77
2023-03-17T21:10:02.341Z,897.63
2023-03-17T21:12:31.383Z,517.33
2023-03-17T21:14:59.344Z,551.17
2023-03-17T21:17:27.369Z,405.57
2023-03-17T21:19:56.690Z,398.03
2023-03-17T21:22:24.692Z,591.60
2023-03-17T21:24:53.035Z,791.80
2023-03-17T21:27:22.362Z,312.93
2023-03-17T21:29:50.310Z,179.00
2023-03-17T21:32:18.283Z,607.23
2023-03-17T21:34:47.125Z,839.83
2023-03-17T21:37:16.031Z,390.83
2023-03-17T21:39:44.638Z,885.93
2023-03-17T21:42:12.606Z,285.63
2023-03-17T21:44:42.105Z,294.83
2023-03-17T21:47:10.307Z,76.13
2023-03-17T21:49:38.581Z,1408.40
2023-03-17T21:52:07.246Z,379.47
2023-03-17T21:54:36.267Z,1288.77
2023-03-17T21:57:04.300Z,50.97
2023-03-17T21:59:34.411Z,158.63
2023-03-17T22:02:03.813Z,43.00
2023-03-17T22:04:31.998Z,515.10
2023-03-17T22:07:00.568Z,720.33
2023-03-17T22:09:29.456Z,175.23
2023-03-17T22:11:57.826Z,265.73
2023-03-17T22:14:25.842Z,305.10
2023-03-17T22:16:53.835Z,68.40
2023-03-17T22:19:23.177Z,44.87
2023-03-17T22:21:51.733Z,76.43
2023-03-17T22:24:19.855Z,527.03
2023-03-17T22:26:47.852Z,851.40
2023-03-17T22:29:16.368Z,420.13
2023-03-17T22:31:44.687Z,140.57
2023-03-17T22:34:12.710Z,60.57
2023-03-17T22:36:42.154Z,74.30
2023-03-17T22:39:10.840Z,76.97
2023-03-17T22:41:39.485Z,118.73
2023-03-17T22:44:09.264Z,274.20
2023-03-17T22:46:37.436Z,791.63
2023-03-17T22:49:05.984Z,94.03
2023-03-17T22:51:33.957Z,562.80
2023-03-17T22:54:03.790Z,361.77
2023-03-17T22:56:31.742Z,145.50
2023-03-17T22:58:59.792Z,343.03
2023-03-17T23:01:27.994Z,579.73
2023-03-17T23:03:57.012Z,1091.40
2023-03-17T23:06:25.694Z,894.10
2023-03-17T23:08:53.695Z,399.60
2023-03-17T23:11:25.451Z,418.10
2023-03-17T23:13:54.241Z,117.30
2023-03-17T23:16:22.583Z,345.33
2023-03-17T23:18:50.837Z,439.40
2023-03-17T23:21:23.419Z,543.37
2023-03-17T23:23:51.396Z,546.93
2023-03-17T23:26:19.398Z,190.47
2023-03-17T23:28:49.602Z,444.23
2023-03-17T23:31:19.303Z,397.57
2023-03-17T23:33:47.955Z,532.60
2023-03-17T23:36:16.278Z,128.93
2023-03-17T23:38:45.525Z,79.10
2023-03-17T23:41:14.554Z,267.93
2023-03-17T23:43:43.979Z,537.73
2023-03-17T23:46:14.724Z,180.00
2023-03-17T23:48:43.233Z,388.87
2023-03-17T23:51:12.392Z,510.53
2023-03-17T23:53:41.706Z,925.47
2023-03-17T23:56:11.249Z,1694.37
2023-03-17T23:58:39.261Z,610.67
